Terminal Aerodrome Forecast
Issued by NWS

Home | Current Version | Previous Version | Text Only | Print | Product List | Glossary On
Versions: 1 2 3 4 5 6 7 8 9 10 11 12 13
000
FTUS46 KSTO 032300
TAFSMF
TAF
KSMF 032320Z 0400/0424 18012KT P6SM SKC
     FM040100 20011G19KT P6SM SKC
     FM040700 18010KT P6SM SKC=

USA.gov is the U.S. government's official web portal to all federal, state and local government web resources and services.